createdAt,value
2022-10-23T00:00:57.561Z,99532.13
2022-10-23T00:01:58.989Z,99533.78
2022-10-23T00:03:00.732Z,99531.88
2022-10-23T00:04:04.560Z,99537.00
2022-10-23T00:05:06.182Z,99534.97
2022-10-23T00:06:07.798Z,99535.22
2022-10-23T00:07:09.168Z,99534.53
2022-10-23T00:08:10.569Z,99527.56
2022-10-23T00:09:13.256Z,99533.56
2022-10-23T00:10:14.684Z,99539.06
2022-10-23T00:11:18.095Z,99531.88
2022-10-23T00:12:19.518Z,99531.63
2022-10-23T00:13:20.943Z,99531.47
2022-10-23T00:14:23.462Z,99529.69
2022-10-23T00:15:24.852Z,99529.13
2022-10-23T00:16:26.947Z,99529.38
2022-10-23T00:17:28.341Z,99527.81
2022-10-23T00:18:29.739Z,99536.69
2022-10-23T00:19:31.123Z,99532.25
2022-10-23T00:20:32.514Z,99527.56
2022-10-23T00:21:33.899Z,99531.03
2022-10-23T00:22:35.398Z,99525.56
2022-10-23T00:23:37.172Z,99521.91
2022-10-23T00:24:38.616Z,99522.84
2022-10-23T00:25:39.997Z,99527.41
2022-10-23T00:26:41.407Z,99522.75
2022-10-23T00:27:43.165Z,99533.38
2022-10-23T00:28:49.157Z,99525.59
2022-10-23T00:29:50.550Z,99529.34
2022-10-23T00:30:51.984Z,99532.34
2022-10-23T00:31:53.416Z,99529.97
2022-10-23T00:32:55.121Z,99531.97
2022-10-23T00:33:56.522Z,99536.66
2022-10-23T00:34:57.927Z,99546.09
2022-10-23T00:35:59.536Z,99539.16
2022-10-23T00:37:00.988Z,99536.16
2022-10-23T00:38:02.549Z,99535.69
2022-10-23T00:39:04.800Z,99530.16
2022-10-23T00:40:06.568Z,99530.53
2022-10-23T00:41:08.933Z,99527.34
2022-10-23T00:42:13.996Z,99528.50
2022-10-23T00:43:22.645Z,99523.03
2022-10-23T00:44:24.006Z,99540.72
2022-10-23T00:45:26.699Z,99537.59
2022-10-23T00:46:28.493Z,99539.38
2022-10-23T00:47:29.960Z,99545.25
2022-10-23T00:48:31.375Z,99532.94
2022-10-23T00:49:34.446Z,99529.56
2022-10-23T00:50:36.112Z,99538.56
2022-10-23T00:51:48.918Z,99538.09
2022-10-23T00:52:51.536Z,99535.59
2022-10-23T00:54:01.217Z,99536.56
2022-10-23T00:55:15.283Z,99542.91
2022-10-23T00:56:16.813Z,99542.91
2022-10-23T00:57:18.359Z,99541.69
2022-10-23T00:58:20.722Z,99545.88
2022-10-23T00:59:22.602Z,99545.00
2022-10-23T01:00:25.684Z,99534.75
2022-10-23T01:01:27.300Z,99544.94
2022-10-23T01:02:29.205Z,99543.75
2022-10-23T01:03:30.698Z,99545.31
2022-10-23T01:04:32.636Z,99543.97
2022-10-23T01:05:41.281Z,99549.59
2022-10-23T01:06:42.715Z,99541.59
2022-10-23T01:07:46.914Z,99548.41
2022-10-23T01:08:52.201Z,99548.03
2022-10-23T01:10:13.881Z,99545.06
2022-10-23T01:11:20.418Z,99549.75
2022-10-23T01:12:37.808Z,99550.91
2022-10-23T01:13:54.475Z,99553.44
2022-10-23T01:15:06.158Z,99560.13
2022-10-23T01:16:07.628Z,99554.75
2022-10-23T01:17:20.873Z,99552.97
2022-10-23T01:18:27.429Z,99554.63
2022-10-23T01:19:37.782Z,99555.47
2022-10-23T01:20:44.455Z,99552.97
2022-10-23T01:21:59.398Z,99556.31
2022-10-23T01:23:12.502Z,99556.06
2022-10-23T01:24:22.721Z,99550.44
2022-10-23T01:25:32.803Z,99559.41
2022-10-23T01:26:34.203Z,99556.06
2022-10-23T01:27:42.384Z,99552.03
2022-10-23T01:28:49.556Z,99550.22
2022-10-23T01:30:09.224Z,99546.63
2022-10-23T01:31:27.972Z,99553.59
2022-10-23T01:32:48.844Z,99549.16
2022-10-23T01:33:59.539Z,99550.72
2022-10-23T01:35:08.908Z,99549.50
2022-10-23T01:36:15.048Z,99556.22
2022-10-23T01:37:23.140Z,99553.44
2022-10-23T01:38:24.584Z,99555.63
2022-10-23T01:39:32.783Z,99551.78
2022-10-23T01:40:37.299Z,99549.84
2022-10-23T01:41:55.825Z,99555.00
2022-10-23T01:43:10.677Z,99553.09
2022-10-23T01:44:16.060Z,99549.84
2022-10-23T01:45:40.311Z,99547.38
2022-10-23T01:46:44.503Z,99549.84
2022-10-23T01:47:47.679Z,99542.09
2022-10-23T01:48:54.532Z,99539.47
2022-10-23T01:49:56.722Z,99536.53
2022-10-23T01:51:00.445Z,99531.91
2022-10-23T01:52:02.695Z,99540.72
2022-10-23T01:53:04.824Z,99530.72
2022-10-23T01:54:09.050Z,99543.47
2022-10-23T01:55:12.034Z,99543.34
2022-10-23T01:56:18.223Z,99542.41
2022-10-23T01:57:20.910Z,99539.78
2022-10-23T01:58:22.801Z,99548.72
2022-10-23T01:59:32.104Z,99542.97
2022-10-23T02:00:34.381Z,99544.38
2022-10-23T02:01:37.380Z,99543.63
2022-10-23T02:02:41.018Z,99545.09
2022-10-23T02:03:44.327Z,99543.19
2022-10-23T02:05:04.580Z,99548.22
2022-10-23T02:06:06.187Z,99541.66
2022-10-23T02:07:07.831Z,99543.09
2022-10-23T02:08:10.031Z,99545.38
2022-10-23T02:09:11.554Z,99543.25
2022-10-23T02:10:14.140Z,99541.34
2022-10-23T02:11:17.311Z,99546.50
2022-10-23T02:12:24.798Z,99545.53
2022-10-23T02:13:33.615Z,99547.94
2022-10-23T02:14:35.776Z,99546.88
2022-10-23T02:16:00.239Z,99547.34
2022-10-23T02:17:21.930Z,99543.28
2022-10-23T02:18:35.683Z,99545.88
2022-10-23T02:19:56.012Z,99548.72
2022-10-23T02:21:09.773Z,99558.94
2022-10-23T02:22:31.410Z,99555.25
2022-10-23T02:23:35.516Z,99565.28
2022-10-23T02:24:45.443Z,99558.03
2022-10-23T02:26:16.037Z,99561.13
2022-10-23T02:27:41.392Z,99568.56
2022-10-23T02:28:45.867Z,99570.13
2022-10-23T02:29:53.174Z,99571.78
2022-10-23T02:30:57.370Z,99567.59
2022-10-23T02:31:59.112Z,99572.00
2022-10-23T02:33:01.306Z,99574.88
2022-10-23T02:34:02.779Z,99572.19
2022-10-23T02:35:04.552Z,99573.72
2022-10-23T02:36:06.118Z,99580.28
2022-10-23T02:37:07.705Z,99579.16
2022-10-23T02:38:28.387Z,99579.22
2022-10-23T02:39:29.882Z,99575.59
2022-10-23T02:40:49.323Z,99580.63
2022-10-23T02:42:09.554Z,99576.59
2022-10-23T02:43:21.659Z,99576.66
2022-10-23T02:44:23.252Z,99577.97
2022-10-23T02:45:44.915Z,99574.63
2022-10-23T02:46:52.434Z,99572.59
2022-10-23T02:48:04.857Z,99568.06
2022-10-23T02:49:15.336Z,99569.81
2022-10-23T02:50:29.492Z,99563.38
2022-10-23T02:51:40.547Z,99568.56
2022-10-23T02:52:56.834Z,99566.91
2022-10-23T02:54:21.498Z,99569.06
2022-10-23T02:55:29.098Z,99567.22
2022-10-23T02:56:42.349Z,99569.34
2022-10-23T02:57:50.749Z,99571.91
2022-10-23T02:59:10.741Z,99582.09
2022-10-23T03:00:15.270Z,99578.94
2022-10-23T03:01:21.180Z,99586.47
2022-10-23T03:02:25.954Z,99593.19
2022-10-23T03:03:29.833Z,99591.28
2022-10-23T03:04:31.945Z,99588.75
2022-10-23T03:05:36.100Z,99590.03
2022-10-23T03:06:37.541Z,99593.72
2022-10-23T03:07:39.777Z,99590.88
2022-10-23T03:08:48.691Z,99589.59
2022-10-23T03:09:50.092Z,99593.34
2022-10-23T03:10:51.512Z,99584.53
2022-10-23T03:11:54.936Z,99589.34
2022-10-23T03:12:56.572Z,99585.56
2022-10-23T03:13:58.354Z,99587.38
2022-10-23T03:14:59.845Z,99583.47
2022-10-23T03:16:01.262Z,99588.41
2022-10-23T03:17:02.908Z,99579.47
2022-10-23T03:18:04.481Z,99586.59
2022-10-23T03:19:05.962Z,99581.09
2022-10-23T03:20:08.189Z,99581.69
2022-10-23T03:21:10.383Z,99582.31
2022-10-23T03:22:11.782Z,99579.91
2022-10-23T03:23:13.603Z,99588.03
2022-10-23T03:24:15.015Z,99586.28
2022-10-23T03:25:18.250Z,99585.16
2022-10-23T03:26:20.355Z,99580.34
2022-10-23T03:27:22.934Z,99584.75
2022-10-23T03:28:24.383Z,99583.91
2022-10-23T03:29:25.799Z,99589.34
2022-10-23T03:30:27.196Z,99579.59
2022-10-23T03:31:29.575Z,99583.16
2022-10-23T03:32:33.579Z,99582.75
2022-10-23T03:33:35.017Z,99584.72
2022-10-23T03:34:45.044Z,99583.13
2022-10-23T03:36:54.223Z,99585.00
2022-10-23T03:37:55.746Z,99590.94
2022-10-23T03:38:59.107Z,99580.88
2022-10-23T03:40:00.864Z,99590.81
2022-10-23T03:41:05.147Z,99587.88
2022-10-23T03:42:06.920Z,99590.28
2022-10-23T03:43:08.423Z,99584.31
2022-10-23T03:44:12.509Z,99593.00
2022-10-23T03:45:19.006Z,99601.59
2022-10-23T03:46:22.415Z,99590.78
2022-10-23T03:47:27.892Z,99587.94
2022-10-23T03:48:29.272Z,99589.16
2022-10-23T03:49:33.237Z,99585.13
2022-10-23T03:50:39.241Z,99581.44
2022-10-23T03:51:40.650Z,99582.50
2022-10-23T03:52:42.362Z,99582.59
2022-10-23T03:53:46.505Z,99577.16
2022-10-23T03:54:47.912Z,99588.38
2022-10-23T03:55:51.043Z,99586.69
2022-10-23T03:56:56.506Z,99577.97
2022-10-23T03:57:59.057Z,99583.75
2022-10-23T03:59:00.510Z,99583.28
2022-10-23T04:00:02.061Z,99580.53
2022-10-23T04:01:07.256Z,99581.97
2022-10-23T04:02:10.332Z,99589.84
2022-10-23T04:03:11.773Z,99585.47
2022-10-23T04:04:13.227Z,99584.38
2022-10-23T04:05:17.647Z,99579.13
2022-10-23T04:06:27.780Z,99583.06
2022-10-23T04:07:31.574Z,99585.47
2022-10-23T04:08:35.951Z,99585.59
2022-10-23T04:09:42.295Z,99579.97
2022-10-23T04:10:49.618Z,99578.16
2022-10-23T04:11:55.506Z,99584.84
2022-10-23T04:13:00.250Z,99581.03
2022-10-23T04:14:02.174Z,99579.03
2022-10-23T04:15:03.809Z,99587.94
2022-10-23T04:16:05.278Z,99584.03
2022-10-23T04:17:06.687Z,99593.47
2022-10-23T04:18:08.876Z,99593.72
2022-10-23T04:19:10.310Z,99592.97
2022-10-23T04:20:11.717Z,99594.28
2022-10-23T04:21:13.140Z,99590.22
2022-10-23T04:22:14.580Z,99589.13
2022-10-23T04:23:16.190Z,99588.28
2022-10-23T04:24:18.672Z,99588.91
2022-10-23T04:25:20.115Z,99587.72
2022-10-23T04:26:21.544Z,99586.66
2022-10-23T04:27:23.085Z,99585.59
2022-10-23T04:28:24.659Z,99584.53
2022-10-23T04:29:26.172Z,99585.13
2022-10-23T04:30:27.708Z,99577.75
2022-10-23T04:31:29.910Z,99581.34
2022-10-23T04:32:31.351Z,99569.75
2022-10-23T04:33:32.823Z,99573.22
2022-10-23T04:34:34.267Z,99574.28
2022-10-23T04:35:36.701Z,99575.94
2022-10-23T04:36:38.183Z,99572.25
2022-10-23T04:37:44.321Z,99575.59
2022-10-23T04:38:45.989Z,99572.25
2022-10-23T04:39:47.416Z,99573.31
2022-10-23T04:40:49.015Z,99577.88
2022-10-23T04:41:54.874Z,99577.88
2022-10-23T04:42:59.620Z,99577.16
2022-10-23T04:44:01.131Z,99582.41
2022-10-23T04:45:02.808Z,99575.47
2022-10-23T04:46:04.428Z,99576.28
2022-10-23T04:47:05.848Z,99585.13
2022-10-23T04:48:11.624Z,99582.63
2022-10-23T04:49:31.227Z,99582.50
2022-10-23T04:51:00.111Z,99579.78
2022-10-23T04:52:21.500Z,99582.28
2022-10-23T04:53:56.142Z,99583.81
2022-10-23T04:55:20.509Z,99579.28
2022-10-23T04:56:43.390Z,99580.84
2022-10-23T04:57:50.165Z,99580.72
2022-10-23T04:58:55.967Z,99587.13
2022-10-23T04:59:58.600Z,99580.53
2022-10-23T05:01:00.096Z,99586.75
2022-10-23T05:02:01.615Z,99579.69
2022-10-23T05:03:03.492Z,99586.63
2022-10-23T05:04:10.615Z,99586.63
2022-10-23T05:05:30.562Z,99584.56
2022-10-23T05:06:56.261Z,99588.03
2022-10-23T05:08:15.679Z,99588.53
2022-10-23T05:09:37.968Z,99592.59
2022-10-23T05:10:51.396Z,99601.06
2022-10-23T05:11:52.815Z,99605.25
2022-10-23T05:12:54.306Z,99600.84
2022-10-23T05:13:55.724Z,99617.19
2022-10-23T05:14:57.434Z,99606.31
2022-10-23T05:15:59.457Z,99610.28
2022-10-23T05:17:02.715Z,99611.94
2022-10-23T05:18:16.361Z,99617.34
2022-10-23T05:19:23.463Z,99612.75
2022-10-23T05:20:28.547Z,99616.44
2022-10-23T05:21:31.853Z,99609.75
2022-10-23T05:22:36.225Z,99605.78
2022-10-23T05:23:42.046Z,99611.47
2022-10-23T05:24:46.951Z,99614.22
2022-10-23T05:25:53.844Z,99614.09
2022-10-23T05:26:56.460Z,99611.38
2022-10-23T05:27:58.060Z,99616.06
2022-10-23T05:29:00.453Z,99615.09
2022-10-23T05:30:02.444Z,99617.38
2022-10-23T05:31:08.134Z,99612.75
2022-10-23T05:32:14.391Z,99611.47
2022-10-23T05:33:16.718Z,99610.03
2022-10-23T05:34:20.525Z,99606.97
2022-10-23T05:35:23.201Z,99605.31
2022-10-23T05:36:25.808Z,99608.66
2022-10-23T05:37:31.300Z,99613.66
2022-10-23T05:38:46.724Z,99609.63
2022-10-23T05:39:51.625Z,99606.78
2022-10-23T05:40:53.323Z,99609.91
2022-10-23T05:41:56.791Z,99607.75
2022-10-23T05:42:59.622Z,99610.03
2022-10-23T05:44:11.695Z,99613.47
2022-10-23T05:45:31.721Z,99612.78
2022-10-23T05:46:55.667Z,99616.63
2022-10-23T05:48:29.733Z,99619.84
2022-10-23T05:49:37.972Z,99618.66
2022-10-23T05:51:11.783Z,99614.25
2022-10-23T05:52:27.369Z,99620.34
2022-10-23T05:53:48.112Z,99615.22
2022-10-23T05:55:07.198Z,99621.31
2022-10-23T05:56:31.539Z,99622.38
2022-10-23T05:57:40.600Z,99618.53
2022-10-23T05:58:45.678Z,99618.88
2022-10-23T06:00:19.289Z,99616.88
2022-10-23T06:01:28.377Z,99617.13
2022-10-23T06:02:34.823Z,99613.63
2022-10-23T06:03:45.594Z,99612.28
2022-10-23T06:04:47.509Z,99619.09
2022-10-23T06:06:07.533Z,99618.97
2022-10-23T06:07:16.968Z,99628.78
2022-10-23T06:08:20.476Z,99619.09
2022-10-23T06:09:24.306Z,99629.47
2022-10-23T06:10:31.484Z,99624.81
2022-10-23T06:11:35.496Z,99613.31
2022-10-23T06:12:42.792Z,99619.28
2022-10-23T06:13:48.440Z,99622.06
2022-10-23T06:14:51.850Z,99627.34
2022-10-23T06:15:53.644Z,99629.13
2022-10-23T06:16:58.838Z,99626.16
2022-10-23T06:18:01.097Z,99632.25
2022-10-23T06:19:03.564Z,99631.66
2022-10-23T06:20:05.296Z,99625.00
2022-10-23T06:21:11.521Z,99629.41
2022-10-23T06:22:13.208Z,99623.78
2022-10-23T06:23:24.941Z,99625.72
2022-10-23T06:24:46.586Z,99633.59
2022-10-23T06:25:53.304Z,99632.22
2022-10-23T06:26:58.115Z,99626.66
2022-10-23T06:28:10.919Z,99628.00
2022-10-23T06:29:12.323Z,99623.56
2022-10-23T06:30:15.882Z,99625.09
2022-10-23T06:31:17.777Z,99627.00
2022-10-23T06:32:19.219Z,99617.50
2022-10-23T06:33:33.121Z,99618.28
2022-10-23T06:34:38.026Z,99617.91
2022-10-23T06:35:42.231Z,99614.91
2022-10-23T06:36:46.230Z,99621.88
2022-10-23T06:38:06.264Z,99612.00
2022-10-23T06:39:13.777Z,99611.47
2022-10-23T06:40:27.819Z,99612.00
2022-10-23T06:41:35.967Z,99609.75
2022-10-23T06:42:37.385Z,99609.84
2022-10-23T06:44:01.988Z,99613.28
2022-10-23T06:45:23.657Z,99611.16
2022-10-23T06:46:25.267Z,99617.94
2022-10-23T06:47:45.141Z,99617.44
2022-10-23T06:49:16.186Z,99615.91
2022-10-23T06:50:22.709Z,99619.25
2022-10-23T06:51:24.167Z,99619.78
2022-10-23T06:52:45.777Z,99618.38
2022-10-23T06:53:49.946Z,99615.03
2022-10-23T06:55:10.130Z,99616.47
2022-10-23T06:56:12.866Z,99623.78
2022-10-23T06:57:14.323Z,99622.53
2022-10-23T06:58:19.829Z,99621.16
2022-10-23T06:59:37.723Z,99629.00
2022-10-23T07:00:40.698Z,99626.13
2022-10-23T07:01:42.308Z,99626.56
2022-10-23T07:02:45.502Z,99631.44
2022-10-23T07:03:48.809Z,99636.16
2022-10-23T07:04:54.109Z,99643.25
2022-10-23T07:05:56.347Z,99637.22
2022-10-23T07:06:57.755Z,99641.44
2022-10-23T07:08:05.000Z,99644.78
2022-10-23T07:09:13.103Z,99647.38
2022-10-23T07:10:27.016Z,99652.22
2022-10-23T07:11:32.751Z,99654.78
2022-10-23T07:12:34.160Z,99655.47
2022-10-23T07:14:01.332Z,99657.22
2022-10-23T07:15:03.495Z,99651.28
2022-10-23T07:16:12.303Z,99656.63
2022-10-23T07:17:13.764Z,99654.84
2022-10-23T07:18:15.270Z,99652.06
2022-10-23T07:19:39.726Z,99656.00
2022-10-23T07:20:46.303Z,99655.31
2022-10-23T07:21:47.768Z,99642.94
2022-10-23T07:22:57.297Z,99645.03
2022-10-23T07:24:05.274Z,99644.06
2022-10-23T07:25:09.449Z,99638.56
2022-10-23T07:26:14.509Z,99643.44
2022-10-23T07:27:16.383Z,99645.94
2022-10-23T07:28:18.843Z,99645.09
2022-10-23T07:29:20.614Z,99637.69
2022-10-23T07:30:23.135Z,99634.59
2022-10-23T07:31:28.430Z,99636.59
2022-10-23T07:32:48.351Z,99641.41
2022-10-23T07:34:09.350Z,99639.97
2022-10-23T07:35:12.287Z,99635.84
2022-10-23T07:36:17.981Z,99635.22
2022-10-23T07:37:19.476Z,99632.88
2022-10-23T07:38:21.006Z,99633.03
2022-10-23T07:39:27.484Z,99634.66
2022-10-23T07:40:29.109Z,99639.84
2022-10-23T07:41:31.596Z,99644.50
2022-10-23T07:42:33.311Z,99634.19
2022-10-23T07:43:34.810Z,99639.88
2022-10-23T07:44:36.264Z,99645.50
2022-10-23T07:45:37.983Z,99639.78
2022-10-23T07:46:48.529Z,99644.47
2022-10-23T07:47:50.474Z,99641.56
2022-10-23T07:48:52.613Z,99645.84
2022-10-23T07:49:54.489Z,99638.78
2022-10-23T07:51:00.237Z,99644.78
2022-10-23T07:53:27.410Z,99638.78
2022-10-23T07:54:33.397Z,99645.94
2022-10-23T07:55:59.783Z,99644.03
2022-10-23T07:57:11.700Z,99651.00
2022-10-23T07:58:23.942Z,99648.28
2022-10-23T07:59:39.613Z,99648.03
2022-10-23T08:00:44.600Z,99643.47
2022-10-23T08:01:55.807Z,99646.69
2022-10-23T08:03:02.204Z,99642.81
2022-10-23T08:04:04.292Z,99644.22
2022-10-23T08:05:06.228Z,99644.91
2022-10-23T08:06:13.536Z,99646.75
2022-10-23T08:07:15.184Z,99652.88
2022-10-23T08:08:19.520Z,99653.72
2022-10-23T08:09:23.192Z,99656.22
2022-10-23T08:10:24.774Z,99650.50
2022-10-23T08:11:26.844Z,99654.13
2022-10-23T08:12:28.501Z,99658.03
2022-10-23T08:13:30.425Z,99655.66
2022-10-23T08:14:40.604Z,99656.78
2022-10-23T08:15:42.706Z,99657.19
2022-10-23T08:16:58.443Z,99670.97
2022-10-23T08:18:19.176Z,99663.72
2022-10-23T08:19:20.636Z,99665.38
2022-10-23T08:20:25.535Z,99672.06
2022-10-23T08:21:27.340Z,99667.34
2022-10-23T08:22:29.140Z,99655.13
2022-10-23T08:23:30.856Z,99658.03
2022-10-23T08:24:33.039Z,99663.03
2022-10-23T08:25:34.845Z,99663.03
2022-10-23T08:26:36.329Z,99664.84
2022-10-23T08:27:38.210Z,99660.09
2022-10-23T08:28:40.146Z,99662.47
2022-10-23T08:29:41.680Z,99661.91
2022-10-23T08:30:43.335Z,99659.81
2022-10-23T08:31:45.875Z,99660.25
2022-10-23T08:33:07.564Z,99658.72
2022-10-23T08:34:09.192Z,99665.66
2022-10-23T08:35:10.884Z,99663.72
2022-10-23T08:36:26.184Z,99662.91
2022-10-23T08:37:27.629Z,99657.19
2022-10-23T08:38:29.179Z,99665.63
2022-10-23T08:39:32.768Z,99664.66
2022-10-23T08:40:49.271Z,99668.56
2022-10-23T08:42:00.027Z,99664.69
2022-10-23T08:43:05.245Z,99671.50
2022-10-23T08:44:18.262Z,99676.09
2022-10-23T08:45:31.076Z,99682.22
2022-10-23T08:47:08.692Z,99676.22
2022-10-23T08:48:23.645Z,99677.34
2022-10-23T08:49:53.890Z,99680.25
2022-10-23T08:50:57.444Z,99688.78
2022-10-23T08:52:01.624Z,99687.38
2022-10-23T08:53:03.074Z,99690.69
2022-10-23T08:54:08.011Z,99694.31
2022-10-23T08:55:24.578Z,99691.69
2022-10-23T08:56:27.563Z,99693.94
2022-10-23T08:57:32.393Z,99698.66
2022-10-23T08:58:33.841Z,99697.81
2022-10-23T08:59:38.344Z,99696.00
2022-10-23T09:00:39.859Z,99702.41
2022-10-23T09:01:49.410Z,99699.47
2022-10-23T09:02:52.208Z,99697.13
2022-10-23T09:03:53.825Z,99692.13
2022-10-23T09:04:57.240Z,99682.78
2022-10-23T09:06:07.918Z,99682.53
2022-10-23T09:07:28.406Z,99680.69
2022-10-23T09:08:29.844Z,99675.97
2022-10-23T09:09:40.610Z,99681.81
2022-10-23T09:10:47.034Z,99684.03
2022-10-23T09:12:00.084Z,99682.09
2022-10-23T09:13:10.966Z,99694.59
2022-10-23T09:14:24.818Z,99698.91
2022-10-23T09:15:40.406Z,99698.50
2022-10-23T09:17:05.251Z,99698.06
2022-10-23T09:18:12.738Z,99695.31
2022-10-23T09:19:18.231Z,99685.97
2022-10-23T09:20:24.825Z,99689.00
2022-10-23T09:21:30.089Z,99688.03
2022-10-23T09:22:31.823Z,99684.53
2022-10-23T09:23:33.290Z,99683.69
2022-10-23T09:24:34.942Z,99678.78
2022-10-23T09:25:40.340Z,99677.53
2022-10-23T09:26:41.789Z,99679.22
2022-10-23T09:27:53.201Z,99686.97
2022-10-23T09:29:02.972Z,99676.41
2022-10-23T09:30:04.776Z,99678.06
2022-10-23T09:31:10.318Z,99683.84
2022-10-23T09:32:11.888Z,99675.47
2022-10-23T09:33:13.345Z,99679.34
2022-10-23T09:34:19.270Z,99685.66
2022-10-23T09:35:22.088Z,99681.84
2022-10-23T09:36:23.648Z,99675.66
2022-10-23T09:37:29.252Z,99685.00
2022-10-23T09:38:30.681Z,99679.47
2022-10-23T09:39:33.295Z,99679.19
2022-10-23T09:40:41.662Z,99675.28
2022-10-23T09:41:43.196Z,99673.69
2022-10-23T09:42:55.594Z,99672.81
2022-10-23T09:44:00.954Z,99667.72
2022-10-23T09:45:02.489Z,99669.25
2022-10-23T09:46:06.004Z,99669.13
2022-10-23T09:47:10.086Z,99671.28
2022-10-23T09:48:13.376Z,99672.44
2022-10-23T09:49:19.088Z,99678.66
2022-10-23T09:50:20.995Z,99673.31
2022-10-23T09:51:22.752Z,99669.16
2022-10-23T09:52:37.321Z,99679.28
2022-10-23T09:53:40.177Z,99672.00
2022-10-23T09:54:45.624Z,99670.03
2022-10-23T09:55:51.302Z,99660.63
2022-10-23T09:56:53.675Z,99673.28
2022-10-23T09:57:55.336Z,99669.28
2022-10-23T09:58:58.364Z,99667.78
2022-10-23T10:00:01.747Z,99656.03
2022-10-23T10:01:23.243Z,99661.91
2022-10-23T10:02:29.181Z,99649.69
2022-10-23T10:03:50.388Z,99649.44
2022-10-23T10:04:54.467Z,99650.13
2022-10-23T10:06:03.490Z,99639.97
2022-10-23T10:07:07.067Z,99639.03
2022-10-23T10:08:20.631Z,99634.91
2022-10-23T10:09:22.098Z,99643.41
2022-10-23T10:10:23.906Z,99641.63
2022-10-23T10:11:35.370Z,99642.94
2022-10-23T10:12:59.329Z,99646.28
2022-10-23T10:14:06.119Z,99637.81
2022-10-23T10:15:33.732Z,99641.19
2022-10-23T10:16:38.094Z,99637.03
2022-10-23T10:17:44.274Z,99640.72
2022-10-23T10:19:04.759Z,99638.88
2022-10-23T10:20:15.527Z,99637.72
2022-10-23T10:21:34.290Z,99635.69
2022-10-23T10:22:41.509Z,99626.75
2022-10-23T10:23:47.017Z,99626.09
2022-10-23T10:24:57.365Z,99623.31
2022-10-23T10:26:15.139Z,99630.59
2022-10-23T10:27:39.137Z,99629.78
2022-10-23T10:28:40.593Z,99637.59
2022-10-23T10:29:54.319Z,99629.97
2022-10-23T10:31:17.628Z,99630.47
2022-10-23T10:32:19.088Z,99627.69
2022-10-23T10:33:20.528Z,99643.25
2022-10-23T10:34:50.881Z,99627.81
2022-10-23T10:36:02.405Z,99633.13
2022-10-23T10:37:19.167Z,99626.50
2022-10-23T10:38:34.286Z,99625.31
2022-10-23T10:40:11.425Z,99622.03
2022-10-23T10:41:25.083Z,99620.88
2022-10-23T10:42:28.994Z,99620.38
2022-10-23T10:43:38.691Z,99627.03
2022-10-23T10:44:43.152Z,99621.22
2022-10-23T10:45:44.665Z,99613.63
2022-10-23T10:46:46.138Z,99618.59
2022-10-23T10:48:10.775Z,99610.28
2022-10-23T10:49:35.693Z,99606.97
2022-10-23T10:51:01.992Z,99611.94
2022-10-23T10:52:21.444Z,99604.47
2022-10-23T10:53:22.858Z,99606.28
2022-10-23T10:54:24.356Z,99595.00
2022-10-23T10:55:34.989Z,99598.00
2022-10-23T10:56:39.382Z,99593.00
2022-10-23T10:57:49.972Z,99592.66
2022-10-23T10:58:53.790Z,99593.78
2022-10-23T10:59:57.144Z,99588.28
2022-10-23T11:01:01.287Z,99592.94
2022-10-23T11:02:13.825Z,99590.28
2022-10-23T11:03:31.310Z,99585.97
2022-10-23T11:04:34.405Z,99582.81
2022-10-23T11:05:42.376Z,99580.78
2022-10-23T11:06:46.367Z,99580.09
2022-10-23T11:07:55.661Z,99577.63
2022-10-23T11:09:19.317Z,99583.63
2022-10-23T11:10:21.534Z,99577.47
2022-10-23T11:11:32.876Z,99572.16
2022-10-23T11:12:34.486Z,99579.66
2022-10-23T11:13:37.257Z,99569.34
2022-10-23T11:14:38.805Z,99572.38
2022-10-23T11:15:42.687Z,99564.03
2022-10-23T11:16:57.364Z,99562.38
2022-10-23T11:18:01.081Z,99561.03
2022-10-23T11:19:02.556Z,99560.88
2022-10-23T11:20:16.772Z,99555.91
2022-10-23T11:21:30.460Z,99555.72
2022-10-23T11:22:58.365Z,99549.72
2022-10-23T11:25:24.874Z,99547.22
2022-10-23T11:26:39.819Z,99550.03
2022-10-23T11:27:47.023Z,99550.19
2022-10-23T11:29:24.122Z,99551.66
2022-10-23T11:30:25.565Z,99548.63
2022-10-23T11:31:30.043Z,99545.69
2022-10-23T11:32:31.524Z,99544.69
2022-10-23T11:33:46.986Z,99539.66
2022-10-23T11:34:48.398Z,99539.13
2022-10-23T11:36:08.638Z,99534.47
2022-10-23T11:37:10.161Z,99538.44
2022-10-23T11:38:19.253Z,99531.94
2022-10-23T11:39:25.964Z,99533.59
2022-10-23T11:40:29.881Z,99522.91
2022-10-23T11:41:31.472Z,99526.22
2022-10-23T11:42:34.626Z,99531.88
2022-10-23T11:43:52.785Z,99526.78
2022-10-23T11:44:54.262Z,99532.28
2022-10-23T11:45:55.897Z,99526.13
2022-10-23T11:47:04.315Z,99531.19
2022-10-23T11:48:26.006Z,99529.09
2022-10-23T11:49:27.522Z,99526.56
2022-10-23T11:50:29.043Z,99525.22
2022-10-23T11:51:37.845Z,99530.66
2022-10-23T11:52:50.346Z,99528.00
2022-10-23T11:53:52.455Z,99521.28
2022-10-23T11:55:12.657Z,99529.94
2022-10-23T11:56:14.070Z,99521.28
2022-10-23T11:57:16.219Z,99523.59
2022-10-23T11:58:37.903Z,99520.50
2022-10-23T11:59:51.973Z,99529.84
2022-10-23T12:00:56.009Z,99526.84
2022-10-23T12:02:02.013Z,99529.16
2022-10-23T12:03:04.670Z,99524.53
2022-10-23T12:04:15.220Z,99532.66
2022-10-23T12:05:33.731Z,99521.31
2022-10-23T12:06:42.908Z,99509.88
2022-10-23T12:07:45.866Z,99511.41
2022-10-23T12:08:50.158Z,99513.41
2022-10-23T12:09:54.286Z,99513.75
2022-10-23T12:10:55.771Z,99510.09
2022-10-23T12:12:03.252Z,99509.41
2022-10-23T12:13:06.199Z,99504.78
2022-10-23T12:14:26.200Z,99502.78
2022-10-23T12:15:28.193Z,99499.47
2022-10-23T12:16:36.376Z,99498.81
2022-10-23T12:17:44.693Z,99501.50
2022-10-23T12:18:53.850Z,99495.72
2022-10-23T12:20:16.172Z,99491.41
2022-10-23T12:21:22.462Z,99486.91
2022-10-23T12:22:27.782Z,99489.44
2022-10-23T12:23:29.250Z,99481.59
2022-10-23T12:24:48.457Z,99481.28
2022-10-23T12:26:08.691Z,99485.41
2022-10-23T12:27:16.569Z,99484.59
2022-10-23T12:28:24.213Z,99481.59
2022-10-23T12:29:34.804Z,99481.44
2022-10-23T12:30:45.705Z,99476.44
2022-10-23T12:32:05.915Z,99474.97
2022-10-23T12:33:13.231Z,99473.47
2022-10-23T12:34:14.657Z,99471.97
2022-10-23T12:35:31.260Z,99467.34
2022-10-23T12:36:51.666Z,99468.53
2022-10-23T12:38:11.779Z,99471.53
2022-10-23T12:39:28.113Z,99468.22
2022-10-23T12:40:29.592Z,99467.22
2022-10-23T12:41:32.373Z,99468.75
2022-10-23T12:42:33.985Z,99469.59
2022-10-23T12:43:37.081Z,99476.41
2022-10-23T12:44:38.528Z,99469.44
2022-10-23T12:45:40.711Z,99471.91
2022-10-23T12:46:46.237Z,99465.75
2022-10-23T12:47:48.539Z,99477.22
2022-10-23T12:48:51.192Z,99470.75
2022-10-23T12:49:52.680Z,99467.06
2022-10-23T12:50:55.028Z,99467.38
2022-10-23T12:51:56.648Z,99470.88
2022-10-23T12:52:59.736Z,99479.50
2022-10-23T12:54:02.109Z,99480.34
2022-10-23T12:55:11.847Z,99471.38
2022-10-23T12:56:14.118Z,99468.09
2022-10-23T12:57:21.321Z,99470.25
2022-10-23T12:58:24.388Z,99471.91
2022-10-23T12:59:36.266Z,99464.94
2022-10-23T13:00:37.735Z,99465.63
2022-10-23T13:01:41.605Z,99466.44
2022-10-23T13:02:45.060Z,99460.78
2022-10-23T13:03:46.641Z,99451.00
2022-10-23T13:04:49.677Z,99459.13
2022-10-23T13:05:52.340Z,99458.13
2022-10-23T13:06:55.648Z,99456.47
2022-10-23T13:07:58.350Z,99454.00
2022-10-23T13:09:22.077Z,99450.19
2022-10-23T13:10:42.323Z,99449.53
2022-10-23T13:11:44.895Z,99452.34
2022-10-23T13:12:53.696Z,99449.34